createdAt,value
2018-07-31T00:00:31.506Z,0.00
2018-07-31T00:01:31.081Z,0.00
2018-07-31T00:02:31.007Z,0.00
2018-07-31T00:03:31.022Z,0.00
2018-07-31T00:04:30.664Z,0.00
2018-07-31T00:05:30.688Z,0.00
2018-07-31T00:06:30.614Z,0.00
2018-07-31T00:07:30.683Z,0.00
2018-07-31T00:08:30.563Z,0.00
2018-07-31T00:09:30.561Z,0.00
2018-07-31T00:10:30.547Z,0.00
2018-07-31T00:11:30.503Z,0.00
2018-07-31T00:12:30.487Z,0.00
2018-07-31T00:13:30.469Z,0.00
2018-07-31T00:16:33.589Z,0.00
2018-07-31T00:17:33.936Z,0.00
2018-07-31T00:19:28.292Z,0.00
2018-07-31T00:20:28.134Z,0.00
2018-07-31T00:23:01.997Z,0.00
2018-07-31T00:24:02.014Z,0.00
2018-07-31T00:26:08.030Z,0.00
2018-07-31T00:27:07.966Z,0.00
2018-07-31T00:29:13.473Z,0.00
2018-07-31T00:30:13.554Z,0.00
2018-07-31T00:31:13.044Z,0.00
2018-07-31T00:32:13.215Z,0.00
2018-07-31T00:33:13.097Z,0.00
2018-07-31T00:34:12.826Z,0.00
2018-07-31T00:35:12.808Z,0.00
2018-07-31T00:36:12.772Z,0.00
2018-07-31T00:37:12.752Z,0.00
2018-07-31T00:38:12.727Z,0.00
2018-07-31T00:39:12.756Z,0.00
2018-07-31T00:40:12.681Z,0.00
2018-07-31T00:41:12.663Z,0.00
2018-07-31T00:42:12.648Z,0.00
2018-07-31T00:43:12.627Z,0.00
2018-07-31T00:44:12.603Z,0.00
2018-07-31T00:45:12.570Z,0.00
2018-07-31T00:46:12.547Z,0.00
2018-07-31T00:47:12.528Z,0.00
2018-07-31T00:48:12.507Z,0.00
2018-07-31T00:49:12.563Z,0.00
2018-07-31T00:50:12.465Z,0.00
2018-07-31T00:51:12.470Z,0.00
2018-07-31T00:52:12.411Z,0.00
2018-07-31T00:53:12.393Z,0.00
2018-07-31T00:54:12.371Z,0.00
2018-07-31T00:55:12.351Z,0.00
2018-07-31T00:56:12.335Z,0.00
2018-07-31T00:57:12.313Z,0.00
2018-07-31T00:58:12.363Z,0.00
2018-07-31T00:59:12.273Z,0.00
2018-07-31T01:00:12.242Z,0.00
2018-07-31T01:01:12.231Z,0.00
2018-07-31T01:02:12.201Z,0.00
2018-07-31T01:03:12.174Z,0.00
2018-07-31T01:04:12.153Z,0.00
2018-07-31T01:05:12.138Z,0.00
2018-07-31T01:06:12.124Z,0.00
2018-07-31T01:07:12.090Z,0.00
2018-07-31T01:08:12.074Z,0.00
2018-07-31T01:09:12.052Z,0.00
2018-07-31T01:10:12.023Z,0.00
2018-07-31T01:11:12.008Z,0.00
2018-07-31T01:12:12.013Z,0.00
2018-07-31T01:13:12.037Z,0.00
2018-07-31T01:14:11.929Z,0.00
2018-07-31T01:15:11.911Z,0.00
2018-07-31T01:16:11.894Z,0.00
2018-07-31T01:17:11.865Z,0.00
2018-07-31T01:18:11.853Z,0.00
2018-07-31T01:19:11.876Z,0.00
2018-07-31T01:20:11.886Z,0.00
2018-07-31T01:21:11.791Z,0.00
2018-07-31T01:22:11.754Z,0.00
2018-07-31T01:23:11.805Z,0.00
2018-07-31T01:24:11.714Z,0.00
2018-07-31T01:25:11.702Z,0.00
2018-07-31T01:26:11.662Z,0.00
2018-07-31T01:27:11.642Z,0.00
2018-07-31T01:28:11.679Z,0.00
2018-07-31T01:29:11.605Z,0.00
2018-07-31T01:30:11.607Z,0.00
2018-07-31T01:31:11.626Z,0.00
2018-07-31T01:32:11.533Z,0.00
2018-07-31T01:33:11.505Z,0.00
2018-07-31T01:34:11.492Z,0.00
2018-07-31T01:35:11.465Z,0.00
2018-07-31T01:36:11.443Z,0.00
2018-07-31T01:37:11.417Z,0.00
2018-07-31T01:38:11.482Z,0.00
2018-07-31T01:39:11.385Z,0.00
2018-07-31T01:40:11.432Z,0.00
2018-07-31T01:41:11.336Z,0.00
2018-07-31T01:42:11.309Z,0.00
2018-07-31T01:43:11.287Z,0.00
2018-07-31T01:44:11.258Z,0.00
2018-07-31T01:45:11.242Z,0.00
2018-07-31T01:46:11.218Z,0.00
2018-07-31T01:47:11.200Z,0.00
2018-07-31T01:48:11.181Z,0.00
2018-07-31T01:49:11.174Z,0.00
2018-07-31T01:50:11.129Z,0.00
2018-07-31T01:51:11.110Z,0.00
2018-07-31T01:52:11.086Z,0.00
2018-07-31T01:53:11.098Z,0.00
2018-07-31T01:54:11.047Z,0.00
2018-07-31T01:55:11.058Z,0.00
2018-07-31T01:56:11.086Z,0.00
2018-07-31T01:57:11.066Z,0.00
2018-07-31T01:58:11.020Z,0.00
2018-07-31T01:59:10.993Z,0.00
2018-07-31T02:00:10.915Z,0.00
2018-07-31T02:01:10.971Z,0.00
2018-07-31T02:02:10.914Z,0.00
2018-07-31T02:03:10.835Z,0.00
2018-07-31T02:04:10.816Z,0.00
2018-07-31T02:05:10.796Z,0.00
2018-07-31T02:06:10.828Z,0.00
2018-07-31T02:07:10.753Z,0.00
2018-07-31T02:08:10.737Z,0.00
2018-07-31T02:09:10.823Z,0.00
2018-07-31T02:10:10.724Z,0.00
2018-07-31T02:11:10.664Z,0.00
2018-07-31T02:12:10.647Z,0.00
2018-07-31T02:13:10.761Z,0.00
2018-07-31T02:14:10.599Z,0.00
2018-07-31T02:15:10.573Z,0.00
2018-07-31T02:16:10.562Z,0.00
2018-07-31T02:17:10.573Z,0.00
2018-07-31T02:18:10.529Z,0.00
2018-07-31T02:19:10.498Z,0.00
2018-07-31T02:20:10.487Z,0.00
2018-07-31T02:21:10.458Z,0.00
2018-07-31T02:22:10.417Z,0.00
2018-07-31T02:23:10.393Z,0.00
2018-07-31T02:24:10.360Z,0.00
2018-07-31T02:25:10.345Z,0.00
2018-07-31T02:26:10.333Z,0.00
2018-07-31T02:27:10.448Z,0.00
2018-07-31T02:28:10.339Z,0.00
2018-07-31T02:29:10.261Z,0.00
2018-07-31T02:30:10.266Z,0.00
2018-07-31T02:31:10.295Z,0.00
2018-07-31T02:32:10.194Z,0.00
2018-07-31T02:33:10.216Z,0.00
2018-07-31T02:34:10.178Z,0.00
2018-07-31T02:35:10.138Z,0.00
2018-07-31T02:36:10.103Z,0.00
2018-07-31T02:37:10.212Z,0.00
2018-07-31T02:38:10.046Z,0.00
2018-07-31T02:39:10.034Z,0.00
2018-07-31T02:40:10.046Z,0.00
2018-07-31T02:41:09.971Z,0.00
2018-07-31T02:42:09.951Z,0.00
2018-07-31T02:43:09.955Z,0.00
2018-07-31T02:44:09.944Z,0.00
2018-07-31T02:45:09.897Z,0.00
2018-07-31T02:46:09.871Z,0.00
2018-07-31T02:47:09.853Z,0.00
2018-07-31T02:48:09.818Z,0.00
2018-07-31T02:49:09.789Z,0.00
2018-07-31T02:50:09.773Z,0.00
2018-07-31T02:51:09.885Z,0.00
2018-07-31T02:52:09.726Z,0.00
2018-07-31T02:53:09.706Z,0.00
2018-07-31T02:54:09.794Z,0.00
2018-07-31T02:55:09.657Z,0.00
2018-07-31T02:56:09.632Z,0.00
2018-07-31T02:57:09.618Z,0.00
2018-07-31T02:58:09.734Z,0.00
2018-07-31T02:59:09.657Z,0.00
2018-07-31T03:00:09.610Z,0.00
2018-07-31T03:01:09.586Z,0.00
2018-07-31T03:02:09.497Z,0.00
2018-07-31T03:03:09.474Z,0.00
2018-07-31T03:04:09.468Z,0.00
2018-07-31T03:05:09.432Z,0.00
2018-07-31T03:06:09.399Z,0.00
2018-07-31T03:07:09.439Z,0.00
2018-07-31T03:08:09.395Z,0.00
2018-07-31T03:09:09.340Z,0.00
2018-07-31T03:10:09.321Z,0.00
2018-07-31T03:11:09.296Z,0.00
2018-07-31T03:12:09.260Z,0.00
2018-07-31T03:13:09.325Z,0.00
2018-07-31T03:14:09.240Z,0.00
2018-07-31T03:15:09.269Z,0.00
2018-07-31T03:16:09.181Z,0.00
2018-07-31T03:17:09.156Z,0.00
2018-07-31T03:18:09.211Z,0.00
2018-07-31T03:19:09.111Z,0.00
2018-07-31T03:20:09.084Z,0.00
2018-07-31T03:21:09.064Z,0.00
2018-07-31T03:22:09.041Z,0.00
2018-07-31T03:23:09.023Z,0.00
2018-07-31T03:24:08.993Z,0.00
2018-07-31T03:25:08.986Z,0.00
2018-07-31T03:26:08.941Z,0.00
2018-07-31T03:27:08.922Z,0.00
2018-07-31T03:28:08.937Z,0.00
2018-07-31T03:29:08.939Z,0.00
2018-07-31T03:30:08.860Z,0.00
2018-07-31T03:31:08.902Z,0.00
2018-07-31T03:32:08.806Z,0.00
2018-07-31T03:33:08.785Z,0.00
2018-07-31T03:34:08.764Z,0.00
2018-07-31T03:35:08.739Z,0.00
2018-07-31T03:36:08.719Z,0.00
2018-07-31T03:37:08.699Z,0.00
2018-07-31T03:38:08.732Z,0.00
2018-07-31T03:39:08.662Z,0.00
2018-07-31T03:40:08.620Z,0.00
2018-07-31T03:41:08.711Z,0.00
2018-07-31T03:42:08.586Z,0.00
2018-07-31T03:43:08.560Z,0.00
2018-07-31T03:44:08.562Z,0.00
2018-07-31T03:45:08.507Z,5.63
2018-07-31T03:46:08.489Z,5.63
2018-07-31T03:47:08.458Z,5.63
2018-07-31T03:48:08.443Z,5.63
2018-07-31T03:49:08.428Z,5.63
2018-07-31T03:50:08.479Z,5.63
2018-07-31T03:51:08.390Z,11.25
2018-07-31T03:52:08.359Z,11.25
2018-07-31T03:53:08.404Z,11.25
2018-07-31T03:54:08.301Z,11.25
2018-07-31T03:55:08.293Z,11.25
2018-07-31T03:56:08.280Z,11.25
2018-07-31T03:57:08.233Z,16.88
2018-07-31T03:58:08.227Z,16.88
2018-07-31T03:59:08.180Z,16.88
2018-07-31T04:00:08.303Z,16.88
2018-07-31T04:01:08.136Z,22.50
2018-07-31T04:02:08.171Z,22.50
2018-07-31T04:03:08.095Z,22.50
2018-07-31T04:04:08.066Z,28.13
2018-07-31T04:05:08.154Z,28.13
2018-07-31T04:06:08.061Z,28.13
2018-07-31T04:07:08.062Z,28.13
2018-07-31T04:08:07.977Z,33.75
2018-07-31T04:09:08.029Z,33.75
2018-07-31T04:10:07.926Z,33.75
2018-07-31T04:11:07.903Z,33.75
2018-07-31T04:12:07.881Z,39.38
2018-07-31T04:13:07.859Z,39.38
2018-07-31T04:14:07.839Z,39.38
2018-07-31T04:15:07.824Z,39.38
2018-07-31T04:16:26.483Z,45.00
2018-07-31T04:18:07.197Z,45.00
2018-07-31T04:19:06.643Z,50.63
2018-07-31T04:21:09.997Z,56.25
2018-07-31T04:22:08.984Z,56.25
2018-07-31T04:24:10.642Z,61.88
2018-07-31T04:25:10.688Z,61.88
2018-07-31T04:26:10.395Z,67.50
2018-07-31T04:27:31.530Z,67.50
2018-07-31T04:28:10.365Z,67.50
2018-07-31T04:29:10.062Z,73.13
2018-07-31T04:30:10.058Z,73.13
2018-07-31T04:33:12.063Z,78.75
2018-07-31T04:34:12.503Z,78.75
2018-07-31T04:36:33.534Z,84.38
2018-07-31T04:37:14.942Z,84.38
2018-07-31T04:39:19.147Z,90.00
2018-07-31T04:40:18.970Z,95.63
2018-07-31T04:42:26.023Z,95.63
2018-07-31T04:43:26.016Z,101.25
2018-07-31T04:45:31.795Z,101.25
2018-07-31T04:46:31.443Z,106.88
2018-07-31T04:48:35.163Z,106.88
2018-07-31T04:49:34.707Z,112.50
2018-07-31T04:51:37.022Z,112.50
2018-07-31T04:52:36.486Z,118.13
2018-07-31T04:54:43.288Z,118.13
2018-07-31T04:55:42.912Z,118.13
2018-07-31T04:57:42.247Z,123.75
2018-07-31T05:00:03.702Z,123.75
2018-07-31T05:01:02.964Z,129.38
2018-07-31T05:02:58.335Z,129.38
2018-07-31T05:03:57.073Z,129.38
2018-07-31T05:06:05.689Z,123.75
2018-07-31T05:07:07.066Z,123.75
2018-07-31T05:09:27.245Z,129.38
2018-07-31T05:10:06.951Z,135.00
2018-07-31T05:12:09.169Z,146.25
2018-07-31T05:13:09.556Z,151.88
2018-07-31T05:16:58.523Z,168.75
2018-07-31T05:17:58.639Z,174.38
2018-07-31T05:20:08.001Z,174.38
2018-07-31T05:21:07.793Z,185.63
2018-07-31T05:23:14.512Z,196.88
2018-07-31T05:24:14.089Z,202.50
2018-07-31T05:26:24.652Z,208.13
2018-07-31T05:27:24.832Z,208.13
2018-07-31T05:29:29.122Z,208.13
2018-07-31T05:30:28.665Z,202.50
2018-07-31T05:32:34.619Z,213.75
2018-07-31T05:33:37.162Z,202.50
2018-07-31T05:34:33.541Z,213.75
2018-07-31T05:35:35.278Z,213.75
2018-07-31T05:36:33.217Z,213.75
2018-07-31T05:37:33.179Z,213.75
2018-07-31T05:38:33.202Z,213.75
2018-07-31T05:39:35.078Z,213.75
2018-07-31T05:40:33.093Z,213.75
2018-07-31T05:41:33.210Z,213.75
2018-07-31T05:42:33.376Z,213.75
2018-07-31T05:43:33.439Z,213.75
2018-07-31T05:44:49.320Z,208.13
2018-07-31T05:46:43.272Z,213.75
2018-07-31T05:47:42.684Z,213.75
2018-07-31T05:48:42.567Z,219.38
2018-07-31T05:49:42.714Z,219.38
2018-07-31T05:50:42.455Z,225.00
2018-07-31T05:51:45.193Z,230.63
2018-07-31T05:52:44.678Z,236.25
2018-07-31T05:54:01.594Z,241.88
2018-07-31T05:55:44.069Z,247.50
2018-07-31T05:56:43.813Z,247.50
2018-07-31T05:58:47.328Z,253.13
2018-07-31T05:59:46.071Z,258.75
2018-07-31T06:01:43.170Z,258.75
2018-07-31T06:02:42.821Z,275.63
2018-07-31T06:04:54.717Z,275.63
2018-07-31T06:05:52.819Z,275.63
2018-07-31T06:07:50.746Z,275.63
2018-07-31T06:08:50.898Z,270.00
2018-07-31T06:10:55.729Z,264.38
2018-07-31T06:11:55.569Z,258.75
2018-07-31T06:14:00.859Z,253.13
2018-07-31T06:15:00.963Z,241.88
2018-07-31T06:17:07.273Z,230.63
2018-07-31T06:18:06.729Z,230.63
2018-07-31T06:20:16.424Z,225.00
2018-07-31T06:21:16.112Z,230.63
2018-07-31T06:23:19.909Z,230.63
2018-07-31T06:24:19.893Z,230.63
2018-07-31T06:26:20.117Z,247.50
2018-07-31T06:27:20.252Z,258.75
2018-07-31T06:29:24.896Z,286.88
2018-07-31T06:30:24.877Z,303.75
2018-07-31T06:31:26.582Z,309.38
2018-07-31T06:32:24.677Z,320.63
2018-07-31T06:33:24.571Z,326.25
2018-07-31T06:34:24.566Z,320.63
2018-07-31T06:35:24.529Z,320.63
2018-07-31T06:36:26.343Z,315.00
2018-07-31T06:37:24.481Z,315.00
2018-07-31T06:38:24.463Z,315.00
2018-07-31T06:39:24.444Z,315.00
2018-07-31T06:40:24.472Z,315.00
2018-07-31T06:41:24.401Z,309.38
2018-07-31T06:42:24.364Z,309.38
2018-07-31T06:43:24.400Z,303.75
2018-07-31T06:44:24.358Z,303.75
2018-07-31T06:45:24.341Z,303.75
2018-07-31T06:46:24.293Z,309.38
2018-07-31T06:47:24.254Z,315.00
2018-07-31T06:48:24.242Z,315.00
2018-07-31T06:49:24.268Z,315.00
2018-07-31T06:50:24.201Z,309.38
2018-07-31T06:51:25.815Z,298.13
2018-07-31T06:52:24.149Z,275.63
2018-07-31T06:53:24.151Z,270.00
2018-07-31T06:54:24.103Z,292.50
2018-07-31T06:55:24.099Z,303.75
2018-07-31T06:56:24.073Z,286.88
2018-07-31T06:57:24.093Z,292.50
2018-07-31T06:58:24.019Z,292.50
2018-07-31T06:59:25.813Z,303.75
2018-07-31T07:00:23.986Z,298.13
2018-07-31T07:01:23.956Z,286.88
2018-07-31T07:02:25.808Z,286.88
2018-07-31T07:03:23.973Z,298.13
2018-07-31T07:04:23.922Z,320.63
2018-07-31T07:05:23.869Z,326.25
2018-07-31T07:06:23.850Z,320.63
2018-07-31T07:07:23.824Z,331.88
2018-07-31T07:08:23.816Z,354.38
2018-07-31T07:09:25.311Z,371.25
2018-07-31T07:10:23.769Z,393.75
2018-07-31T07:11:23.751Z,416.25
2018-07-31T07:12:23.713Z,410.63
2018-07-31T07:13:23.703Z,427.50
2018-07-31T07:14:23.687Z,461.25
2018-07-31T07:15:23.666Z,405.00
2018-07-31T07:16:23.701Z,416.25
2018-07-31T07:17:23.614Z,427.50
2018-07-31T07:18:23.658Z,450.00
2018-07-31T07:19:23.586Z,455.63
2018-07-31T07:20:23.653Z,427.50
2018-07-31T07:21:23.528Z,416.25
2018-07-31T07:22:25.311Z,427.50
2018-07-31T07:23:23.491Z,450.00
2018-07-31T07:24:23.461Z,433.13
2018-07-31T07:25:23.494Z,433.13
2018-07-31T07:26:23.451Z,433.13
2018-07-31T07:27:23.414Z,444.38
2018-07-31T07:28:24.331Z,455.63
2018-07-31T07:29:23.362Z,472.50
2018-07-31T07:30:36.170Z,489.38
2018-07-31T07:32:27.092Z,466.88
2018-07-31T07:33:27.373Z,489.38
2018-07-31T07:35:34.865Z,506.25
2018-07-31T07:36:34.917Z,534.38
2018-07-31T07:38:39.375Z,556.88
2018-07-31T07:39:38.981Z,551.25
2018-07-31T07:41:48.154Z,601.88
2018-07-31T07:42:47.930Z,556.88
2018-07-31T07:44:51.460Z,579.38
2018-07-31T07:45:51.051Z,556.88
2018-07-31T07:46:51.196Z,556.88
2018-07-31T07:47:51.102Z,545.63
2018-07-31T07:48:50.778Z,562.50
2018-07-31T07:49:50.703Z,568.13
2018-07-31T07:50:50.672Z,545.63
2018-07-31T07:51:50.811Z,534.38
2018-07-31T07:52:50.647Z,528.75
2018-07-31T07:53:50.696Z,506.25
2018-07-31T07:54:50.586Z,506.25
2018-07-31T07:55:50.568Z,495.00
2018-07-31T07:56:50.545Z,500.63
2018-07-31T07:57:50.606Z,495.00
2018-07-31T07:58:50.507Z,489.38
2018-07-31T07:59:50.486Z,489.38
2018-07-31T08:00:50.468Z,489.38
2018-07-31T08:01:50.453Z,466.88
2018-07-31T08:02:50.429Z,450.00
2018-07-31T08:03:50.427Z,416.25
2018-07-31T08:04:50.387Z,433.13
2018-07-31T08:05:50.481Z,405.00
2018-07-31T08:06:50.345Z,393.75
2018-07-31T08:07:50.331Z,382.50
2018-07-31T08:08:50.317Z,376.88
2018-07-31T08:09:50.335Z,371.25
2018-07-31T08:10:50.263Z,365.63
2018-07-31T08:11:50.244Z,360.00
2018-07-31T08:12:50.261Z,365.63
2018-07-31T08:13:50.212Z,354.38
2018-07-31T08:14:50.177Z,348.75
2018-07-31T08:15:50.222Z,354.38
2018-07-31T08:16:50.172Z,360.00
2018-07-31T08:18:08.897Z,365.63
2018-07-31T08:19:54.712Z,410.63
2018-07-31T08:20:55.056Z,416.25
2018-07-31T08:22:58.619Z,399.38
2018-07-31T08:23:58.608Z,444.38
2018-07-31T08:26:04.554Z,472.50
2018-07-31T08:27:04.477Z,500.63
2018-07-31T08:29:07.734Z,562.50
2018-07-31T08:30:07.750Z,568.13
2018-07-31T08:32:26.993Z,641.25
2018-07-31T08:33:26.800Z,641.25
2018-07-31T08:35:48.580Z,691.88
2018-07-31T08:36:48.538Z,686.25
2018-07-31T08:38:59.157Z,669.38
2018-07-31T08:39:59.059Z,680.63
2018-07-31T08:42:09.339Z,646.88
2018-07-31T08:43:09.445Z,669.38
2018-07-31T08:45:11.090Z,579.38
2018-07-31T08:46:11.027Z,573.75
2018-07-31T08:48:22.078Z,573.75
2018-07-31T08:49:21.761Z,562.50
2018-07-31T08:51:30.227Z,517.50
2018-07-31T08:52:30.154Z,523.13
2018-07-31T08:53:30.136Z,511.88
2018-07-31T08:54:29.945Z,517.50
2018-07-31T08:55:29.826Z,534.38
2018-07-31T08:56:29.821Z,601.88
2018-07-31T08:57:29.799Z,585.00
2018-07-31T08:58:29.778Z,568.13
2018-07-31T08:59:29.763Z,579.38
2018-07-31T09:00:29.742Z,573.75
2018-07-31T09:01:29.848Z,579.38
2018-07-31T09:02:29.696Z,579.38
2018-07-31T09:03:29.689Z,579.38
2018-07-31T09:04:29.670Z,618.75
2018-07-31T09:05:31.288Z,641.25
2018-07-31T09:06:29.625Z,624.38
2018-07-31T09:07:29.603Z,663.75
2018-07-31T09:08:29.702Z,714.38
2018-07-31T09:09:29.577Z,765.00
2018-07-31T09:10:29.544Z,826.88
2018-07-31T09:11:29.536Z,781.88
2018-07-31T09:12:31.035Z,855.00
2018-07-31T09:13:29.498Z,866.25
2018-07-31T09:14:29.467Z,894.38
2018-07-31T09:15:29.449Z,905.63
2018-07-31T09:16:29.436Z,905.63
2018-07-31T09:17:29.449Z,832.50
2018-07-31T09:18:29.401Z,871.88
2018-07-31T09:19:29.376Z,911.25
2018-07-31T09:20:29.360Z,905.63
2018-07-31T09:21:29.360Z,855.00
2018-07-31T09:22:29.330Z,826.88
2018-07-31T09:23:29.369Z,860.63
2018-07-31T09:24:29.314Z,804.38
2018-07-31T09:25:29.287Z,798.75
2018-07-31T09:26:29.253Z,798.75
2018-07-31T09:27:29.239Z,810.00
2018-07-31T09:28:29.219Z,781.88
2018-07-31T09:29:29.203Z,781.88
2018-07-31T09:30:29.262Z,781.88
2018-07-31T09:31:29.174Z,776.25
2018-07-31T09:32:29.148Z,810.00
2018-07-31T09:33:29.141Z,798.75
2018-07-31T09:34:29.119Z,787.50
2018-07-31T09:35:29.188Z,781.88
2018-07-31T09:36:29.141Z,770.63
2018-07-31T09:37:29.053Z,776.25
2018-07-31T09:38:29.046Z,765.00
2018-07-31T09:39:29.025Z,765.00
2018-07-31T09:40:29.006Z,770.63
2018-07-31T09:41:28.989Z,776.25
2018-07-31T09:42:28.979Z,748.13
2018-07-31T09:43:28.960Z,725.63
2018-07-31T09:44:28.935Z,720.00
2018-07-31T09:45:28.916Z,725.63
2018-07-31T09:46:28.892Z,708.75
2018-07-31T09:47:28.889Z,675.00
2018-07-31T09:48:28.898Z,630.00
2018-07-31T09:49:28.847Z,607.50
2018-07-31T09:50:28.827Z,607.50
2018-07-31T09:51:28.815Z,652.50
2018-07-31T09:52:28.829Z,596.25
2018-07-31T09:53:28.769Z,601.88
2018-07-31T09:54:28.753Z,545.63
2018-07-31T09:55:28.746Z,500.63
2018-07-31T09:56:28.716Z,489.38
2018-07-31T09:57:28.694Z,466.88
2018-07-31T09:58:29.356Z,450.00
2018-07-31T09:59:28.684Z,472.50
2018-07-31T10:00:28.636Z,444.38
2018-07-31T10:03:29.150Z,489.38
2018-07-31T10:04:29.152Z,506.25
2018-07-31T10:06:31.906Z,534.38
2018-07-31T10:07:31.884Z,568.13
2018-07-31T10:09:35.073Z,528.75
2018-07-31T10:10:35.048Z,551.25
2018-07-31T10:12:35.454Z,556.88
2018-07-31T10:13:35.236Z,523.13
2018-07-31T10:15:39.423Z,556.88
2018-07-31T10:16:40.011Z,534.38
2018-07-31T10:18:50.058Z,590.63
2018-07-31T10:19:49.803Z,607.50
2018-07-31T10:21:53.687Z,630.00
2018-07-31T10:22:52.874Z,641.25
2018-07-31T10:24:58.727Z,635.63
2018-07-31T10:25:58.960Z,630.00
2018-07-31T10:28:02.517Z,691.88
2018-07-31T10:29:02.692Z,585.00
2018-07-31T10:31:18.427Z,613.13
2018-07-31T10:32:18.351Z,720.00
2018-07-31T10:34:21.221Z,770.63
2018-07-31T10:35:21.156Z,680.63
2018-07-31T10:37:26.229Z,658.13
2018-07-31T10:38:25.705Z,630.00
2018-07-31T10:40:30.122Z,686.25
2018-07-31T10:41:30.131Z,703.13
2018-07-31T10:43:34.313Z,596.25
2018-07-31T10:44:34.537Z,624.38
2018-07-31T10:46:50.501Z,635.63
2018-07-31T10:47:50.166Z,691.88
2018-07-31T10:49:56.220Z,787.50
2018-07-31T10:50:55.957Z,708.75
2018-07-31T10:53:01.913Z,770.63
2018-07-31T10:54:01.801Z,815.63
2018-07-31T10:56:06.464Z,888.75
2018-07-31T10:57:06.090Z,781.88
2018-07-31T10:59:09.114Z,821.25
2018-07-31T11:00:09.036Z,759.38
2018-07-31T11:02:13.538Z,658.13
2018-07-31T11:03:13.468Z,562.50
2018-07-31T11:05:19.381Z,708.75
2018-07-31T11:06:19.303Z,759.38
2018-07-31T11:09:02.954Z,877.50
2018-07-31T11:09:29.583Z,877.50
2018-07-31T11:11:32.451Z,781.88
2018-07-31T11:12:32.454Z,720.00
2018-07-31T11:14:36.195Z,579.38
2018-07-31T11:15:36.116Z,641.25
2018-07-31T11:17:42.136Z,568.13
2018-07-31T11:18:41.875Z,658.13
2018-07-31T11:19:41.943Z,585.00
2018-07-31T11:20:41.753Z,568.13
2018-07-31T11:21:41.734Z,579.38
2018-07-31T11:22:41.741Z,708.75
2018-07-31T11:23:41.687Z,720.00
2018-07-31T11:24:41.676Z,686.25
2018-07-31T11:25:41.666Z,652.50
2018-07-31T11:26:41.662Z,641.25
2018-07-31T11:27:41.629Z,646.88
2018-07-31T11:28:41.639Z,646.88
2018-07-31T11:29:41.588Z,635.63
2018-07-31T11:30:41.625Z,551.25
2018-07-31T11:31:41.562Z,551.25
2018-07-31T11:32:41.545Z,601.88
2018-07-31T11:33:41.528Z,641.25
2018-07-31T11:34:41.523Z,630.00
2018-07-31T11:35:41.512Z,635.63
2018-07-31T11:36:41.463Z,686.25
2018-07-31T11:37:41.454Z,697.50
2018-07-31T11:38:41.447Z,838.13
2018-07-31T11:39:41.430Z,911.25
2018-07-31T11:40:41.401Z,916.88
2018-07-31T11:41:41.382Z,939.38
2018-07-31T11:42:41.363Z,933.75
2018-07-31T11:43:41.345Z,691.88
2018-07-31T11:45:01.070Z,630.00
2018-07-31T11:47:04.196Z,911.25
2018-07-31T11:48:04.118Z,973.13
2018-07-31T11:50:10.035Z,1158.75
2018-07-31T11:51:10.126Z,1293.75
2018-07-31T11:53:14.322Z,1434.38
2018-07-31T11:54:14.325Z,1552.50
2018-07-31T11:56:18.715Z,1715.63
2018-07-31T11:57:18.877Z,1653.75
2018-07-31T11:59:23.248Z,1074.38
2018-07-31T12:00:23.133Z,1068.75
2018-07-31T12:02:36.002Z,1192.50
2018-07-31T12:03:35.974Z,1361.25
2018-07-31T12:05:39.038Z,911.25
2018-07-31T12:06:38.936Z,866.25
2018-07-31T12:08:40.252Z,821.25
2018-07-31T12:09:40.149Z,855.00
2018-07-31T12:11:36.079Z,1040.63
2018-07-31T12:12:36.070Z,1147.50
2018-07-31T12:14:44.092Z,1186.88
2018-07-31T12:15:43.990Z,1203.75
2018-07-31T12:17:51.858Z,1096.88
2018-07-31T12:18:51.860Z,2559.38
2018-07-31T12:21:02.131Z,1181.25
2018-07-31T12:22:02.090Z,1080.00
2018-07-31T12:24:24.121Z,3605.63
2018-07-31T12:25:24.020Z,7098.75
2018-07-31T12:27:28.278Z,3937.50
2018-07-31T12:28:28.313Z,5141.25
2018-07-31T12:30:25.418Z,2441.25
2018-07-31T12:31:25.300Z,5006.25
2018-07-31T12:33:30.871Z,2390.63
2018-07-31T12:34:29.181Z,1051.88
2018-07-31T12:36:30.880Z,4055.63
2018-07-31T12:37:30.654Z,3751.88
2018-07-31T12:39:25.672Z,3408.75
2018-07-31T12:40:25.674Z,3448.13
2018-07-31T12:42:53.446Z,3391.88
2018-07-31T12:43:53.320Z,2373.75
2018-07-31T12:45:50.196Z,3234.38
2018-07-31T12:46:50.268Z,3211.88
2018-07-31T12:48:55.289Z,821.25
2018-07-31T12:49:54.584Z,877.50
2018-07-31T12:51:59.813Z,3217.50
2018-07-31T12:52:59.630Z,3442.50
2018-07-31T12:55:10.063Z,3200.63
2018-07-31T12:56:09.844Z,3403.13
2018-07-31T12:58:13.632Z,3352.50
2018-07-31T12:59:13.314Z,3155.63
2018-07-31T13:01:21.529Z,2857.50
2018-07-31T13:02:21.162Z,3037.50
2018-07-31T13:04:24.458Z,1479.38
2018-07-31T13:05:24.441Z,1181.25
2018-07-31T13:07:58.294Z,1411.88
2018-07-31T13:08:28.076Z,3588.75
2018-07-31T13:10:53.054Z,1141.88
2018-07-31T13:13:23.570Z,4066.88
2018-07-31T13:14:23.838Z,4072.50
2018-07-31T13:16:27.170Z,1096.88
2018-07-31T13:17:27.722Z,1136.25
2018-07-31T13:19:33.183Z,1310.63
2018-07-31T13:20:32.665Z,4770.00
2018-07-31T13:22:36.955Z,5321.25
2018-07-31T13:23:36.966Z,5895.00
2018-07-31T13:25:41.050Z,4983.75
2018-07-31T13:26:40.327Z,1923.75
2018-07-31T13:28:44.942Z,821.25
2018-07-31T13:29:44.773Z,826.88
2018-07-31T13:31:44.663Z,911.25
2018-07-31T13:32:44.777Z,950.63
2018-07-31T13:34:49.554Z,956.25
2018-07-31T13:35:49.179Z,1012.50
2018-07-31T13:37:54.455Z,2227.50
2018-07-31T13:38:54.062Z,3465.00
2018-07-31T13:40:58.463Z,3436.88
2018-07-31T13:41:58.210Z,3448.13
2018-07-31T13:44:01.268Z,3403.13
2018-07-31T13:45:00.959Z,3380.63
2018-07-31T13:46:00.824Z,3363.75
2018-07-31T13:47:00.412Z,1046.25
2018-07-31T13:48:00.413Z,1068.75
2018-07-31T13:49:00.390Z,1141.88
2018-07-31T13:50:00.383Z,2581.88
2018-07-31T13:51:00.370Z,3240.00
2018-07-31T13:52:00.348Z,3397.50
2018-07-31T13:53:00.411Z,3352.50
2018-07-31T13:54:00.359Z,3330.00
2018-07-31T13:55:00.353Z,3285.00
2018-07-31T13:56:00.366Z,3150.00
2018-07-31T13:57:00.297Z,3330.00
2018-07-31T13:58:00.291Z,3363.75
2018-07-31T13:59:00.281Z,3380.63
2018-07-31T14:00:00.306Z,3358.13
2018-07-31T14:01:00.253Z,3262.50
2018-07-31T14:02:00.255Z,3256.88
2018-07-31T14:03:00.240Z,3307.50
2018-07-31T14:04:00.222Z,3279.38
2018-07-31T14:05:00.216Z,3223.13
2018-07-31T14:06:00.204Z,3234.38
2018-07-31T14:07:00.204Z,3127.50
2018-07-31T14:08:00.189Z,2986.88
2018-07-31T14:09:00.177Z,765.00
2018-07-31T14:10:00.165Z,821.25
2018-07-31T14:11:00.159Z,2784.38
2018-07-31T14:12:00.139Z,905.63
2018-07-31T14:13:00.141Z,3099.38
2018-07-31T14:14:00.121Z,3065.63
2018-07-31T14:15:00.115Z,3031.88
2018-07-31T14:16:00.097Z,3020.63
2018-07-31T14:17:00.098Z,2998.13
2018-07-31T14:18:00.093Z,3015.00
2018-07-31T14:19:00.075Z,2958.75
2018-07-31T14:20:00.060Z,2902.50
2018-07-31T14:21:00.068Z,2840.63
2018-07-31T14:22:00.089Z,2750.63
2018-07-31T14:23:00.023Z,2711.25
2018-07-31T14:24:00.021Z,2683.13
2018-07-31T14:25:00.016Z,2610.00
2018-07-31T14:26:00.002Z,2632.50
2018-07-31T14:26:59.994Z,2559.38
2018-07-31T14:27:59.984Z,2536.88
2018-07-31T14:28:59.968Z,2536.88
2018-07-31T14:29:59.974Z,2570.63
2018-07-31T14:30:59.959Z,2576.25
2018-07-31T14:31:59.959Z,2559.38
2018-07-31T14:32:59.938Z,2188.13
2018-07-31T14:34:02.928Z,810.00
2018-07-31T14:34:59.918Z,2486.25
2018-07-31T14:35:59.918Z,2463.75
2018-07-31T14:36:59.951Z,2446.88
2018-07-31T14:37:59.901Z,2418.75
2018-07-31T14:38:59.883Z,2413.13
2018-07-31T14:39:59.880Z,2368.13
2018-07-31T14:40:59.862Z,2368.13
2018-07-31T14:41:59.863Z,2396.25
2018-07-31T14:42:59.870Z,2396.25
2018-07-31T14:43:59.848Z,2463.75
2018-07-31T14:44:59.847Z,3060.00
2018-07-31T14:45:59.823Z,6114.38
2018-07-31T14:46:59.815Z,6283.13
2018-07-31T14:47:59.803Z,978.75
2018-07-31T14:48:59.811Z,961.88
2018-07-31T14:49:59.791Z,7666.88
2018-07-31T14:50:59.791Z,6980.63
2018-07-31T14:51:59.812Z,6406.88
2018-07-31T14:52:59.764Z,6221.25
2018-07-31T14:53:59.816Z,6086.25
2018-07-31T14:54:59.746Z,6058.13
2018-07-31T14:56:01.335Z,6221.25
2018-07-31T14:56:59.743Z,5985.00